createdAt,value
2023-03-12T00:01:21.878Z,1000.5
2023-03-12T00:06:21.988Z,1000.3
2023-03-12T00:11:21.867Z,1000.3
2023-03-12T00:16:22.039Z,1000.1
2023-03-12T00:21:21.891Z,1000.0
2023-03-12T00:26:22.011Z,1000.0
2023-03-12T00:31:21.927Z,999.9
2023-03-12T00:36:21.954Z,999.9
2023-03-12T00:41:21.902Z,999.8
2023-03-12T00:46:22.067Z,999.6
2023-03-12T00:51:21.865Z,999.7
2023-03-12T00:56:21.970Z,999.7
2023-03-12T01:01:21.883Z,999.6
2023-03-12T01:06:21.959Z,999.5
2023-03-12T01:11:21.866Z,999.4
2023-03-12T01:16:22.031Z,999.3
2023-03-12T01:21:21.888Z,999.3
2023-03-12T01:26:21.956Z,999.2
2023-03-12T01:31:21.965Z,999.0
2023-03-12T01:36:21.965Z,998.9
2023-03-12T01:41:21.871Z,998.9
2023-03-12T01:46:21.956Z,998.9
2023-03-12T01:51:21.908Z,998.8
2023-03-12T01:56:22.045Z,998.7
2023-03-12T02:01:22.022Z,998.6
2023-03-12T02:06:22.044Z,998.5
2023-03-12T02:11:21.898Z,998.4
2023-03-12T02:16:22.055Z,998.3
2023-03-12T02:21:21.942Z,998.3
2023-03-12T02:26:22.024Z,998.3
2023-03-12T02:31:21.977Z,998.2
2023-03-12T02:36:22.026Z,998.2
2023-03-12T02:41:21.959Z,998.1
2023-03-12T02:46:22.192Z,998.0
2023-03-12T02:51:21.989Z,998.1
2023-03-12T02:56:22.097Z,998.0
2023-03-12T03:01:22.020Z,997.9
2023-03-12T03:06:22.113Z,997.9
2023-03-12T03:11:21.980Z,997.8
2023-03-12T03:16:22.074Z,997.8
2023-03-12T03:21:22.004Z,997.8
2023-03-12T03:26:22.094Z,997.8
2023-03-12T03:31:22.206Z,997.8
2023-03-12T03:36:22.143Z,997.7
2023-03-12T03:41:21.968Z,997.8
2023-03-12T03:46:22.116Z,997.9
2023-03-12T03:51:22.010Z,997.9
2023-03-12T03:56:22.077Z,998.0
2023-03-12T04:01:22.016Z,998.1
2023-03-12T04:06:22.081Z,998.0
2023-03-12T04:11:21.990Z,998.1
2023-03-12T04:16:22.231Z,998.1
2023-03-12T04:21:22.009Z,998.2
2023-03-12T04:26:22.033Z,998.2
2023-03-12T04:31:22.035Z,998.3
2023-03-12T04:36:22.032Z,998.3
2023-03-12T04:41:21.975Z,998.3
2023-03-12T04:46:22.074Z,998.2
2023-03-12T04:51:22.006Z,998.2
2023-03-12T04:56:22.033Z,998.2
2023-03-12T05:01:22.019Z,998.1
2023-03-12T05:06:22.102Z,998.0
2023-03-12T05:11:22.027Z,997.9
2023-03-12T05:16:22.230Z,997.8
2023-03-12T05:21:22.083Z,997.8
2023-03-12T05:26:22.175Z,997.7
2023-03-12T05:31:22.132Z,997.9
2023-03-12T05:36:22.155Z,997.9
2023-03-12T05:41:22.086Z,998.0
2023-03-12T05:46:22.189Z,998.0
2023-03-12T05:56:22.177Z,998.1
2023-03-12T06:01:22.078Z,998.0
2023-03-12T06:06:22.172Z,998.1
2023-03-12T06:11:22.066Z,998.1
2023-03-12T06:16:22.245Z,998.1
2023-03-12T06:21:22.097Z,998.2
2023-03-12T06:26:22.147Z,998.4
2023-03-12T06:31:22.136Z,998.4
2023-03-12T06:36:22.150Z,998.4
2023-03-12T06:41:22.106Z,998.5
2023-03-12T06:46:22.396Z,998.5
2023-03-12T06:51:22.101Z,998.6
2023-03-12T06:56:22.170Z,998.6
2023-03-12T07:01:22.095Z,998.6
2023-03-12T07:06:22.152Z,998.6
2023-03-12T07:11:22.093Z,998.7
2023-03-12T07:16:22.202Z,998.8
2023-03-12T07:21:22.088Z,998.6
2023-03-12T07:26:22.169Z,998.6
2023-03-12T07:31:22.123Z,998.6
2023-03-12T07:41:22.185Z,998.7
2023-03-12T07:46:22.226Z,998.7
2023-03-12T07:51:22.096Z,998.7
2023-03-12T07:56:22.403Z,998.7
2023-03-12T08:01:22.136Z,998.9
2023-03-12T08:06:22.162Z,998.7
2023-03-12T08:11:22.095Z,999.0
2023-03-12T08:16:22.404Z,999.2
2023-03-12T08:21:22.146Z,999.3
2023-03-12T08:26:22.206Z,999.5
2023-03-12T08:31:22.180Z,999.5
2023-03-12T08:36:22.652Z,999.4
2023-03-12T08:41:22.135Z,999.3
2023-03-12T08:46:22.389Z,999.3
2023-03-12T08:51:22.197Z,999.2
2023-03-12T08:56:22.327Z,999.0
2023-03-12T09:01:22.197Z,998.9
2023-03-12T09:06:22.331Z,998.6
2023-03-12T09:11:22.220Z,998.7
2023-03-12T09:16:22.448Z,998.7
2023-03-12T09:21:22.235Z,998.8
2023-03-12T09:36:22.404Z,998.8
2023-03-12T09:41:22.275Z,998.6
2023-03-12T09:46:22.361Z,998.5
2023-03-12T09:51:22.209Z,998.7
2023-03-12T09:56:22.210Z,998.7
2023-03-12T10:01:22.245Z,998.7
2023-03-12T10:06:22.389Z,998.7
2023-03-12T10:11:22.227Z,998.7
2023-03-12T10:16:22.395Z,998.5
2023-03-12T10:21:22.243Z,998.5
2023-03-12T10:26:22.308Z,998.5
2023-03-12T10:31:22.326Z,998.2
2023-03-12T10:36:22.299Z,998.3
2023-03-12T10:41:22.233Z,998.2
2023-03-12T10:46:22.317Z,998.2
2023-03-12T10:51:22.230Z,998.3
2023-03-12T10:56:22.311Z,998.3
2023-03-12T11:01:22.270Z,998.1
2023-03-12T11:06:22.361Z,998.1
2023-03-12T11:11:22.289Z,998.0
2023-03-12T11:16:22.487Z,997.9
2023-03-12T11:21:22.263Z,997.8
2023-03-12T11:26:22.352Z,998.0
2023-03-12T11:31:22.403Z,998.1
2023-03-12T11:36:22.356Z,998.2
2023-03-12T11:41:22.295Z,998.6
2023-03-12T11:46:22.367Z,998.6
2023-03-12T11:51:22.286Z,998.8
2023-03-12T11:56:22.340Z,998.7
2023-03-12T12:01:22.334Z,998.7
2023-03-12T12:06:22.407Z,998.8
2023-03-12T12:11:22.325Z,998.9
2023-03-12T12:16:22.406Z,998.7
2023-03-12T12:21:22.319Z,998.8
2023-03-12T12:26:22.452Z,998.7
2023-03-12T12:31:22.402Z,998.7
2023-03-12T12:36:22.488Z,998.6
2023-03-12T12:41:22.366Z,998.4
2023-03-12T12:46:22.546Z,998.2
2023-03-12T12:51:22.385Z,998.1
2023-03-12T12:56:22.450Z,998.1
2023-03-12T13:01:22.434Z,998.0
2023-03-12T13:06:22.464Z,997.7
2023-03-12T13:11:22.375Z,997.6
2023-03-12T13:16:22.496Z,997.6
2023-03-12T13:21:22.392Z,997.7
2023-03-12T13:26:22.428Z,997.6
2023-03-12T13:31:22.422Z,997.5
2023-03-12T13:36:22.469Z,997.2
2023-03-12T13:41:22.375Z,997.1
2023-03-12T13:46:22.493Z,997.1
2023-03-12T13:51:22.367Z,997.1
2023-03-12T13:56:22.430Z,997.1
2023-03-12T14:01:22.392Z,996.9
2023-03-12T14:06:22.443Z,997.0
2023-03-12T14:11:22.372Z,996.9
2023-03-12T14:16:22.547Z,996.8
2023-03-12T14:21:22.367Z,996.8
2023-03-12T14:26:22.441Z,996.8
2023-03-12T14:31:22.408Z,996.6
2023-03-12T14:36:22.529Z,996.7
2023-03-12T14:41:22.369Z,996.6
2023-03-12T14:46:22.562Z,996.6
2023-03-12T14:51:24.201Z,996.5
2023-03-12T14:56:22.532Z,996.5
2023-03-12T15:01:22.531Z,996.4
2023-03-12T15:06:22.537Z,996.4
2023-03-12T15:11:22.452Z,996.3
2023-03-12T15:16:22.624Z,996.4
2023-03-12T15:21:22.434Z,996.3
2023-03-12T15:26:22.564Z,996.3
2023-03-12T15:31:22.575Z,996.4
2023-03-12T15:36:22.611Z,996.3
2023-03-12T15:41:22.433Z,996.1
2023-03-12T15:46:22.715Z,996.0
2023-03-12T15:51:22.441Z,995.9
2023-03-12T15:56:22.529Z,995.9
2023-03-12T16:01:22.579Z,995.6
2023-03-12T16:06:22.548Z,995.5
2023-03-12T16:11:22.484Z,995.4
2023-03-12T16:16:22.615Z,995.3
2023-03-12T16:21:22.455Z,995.2
2023-03-12T16:26:22.586Z,995.0
2023-03-12T16:31:22.532Z,994.9
2023-03-12T16:36:22.569Z,994.9
2023-03-12T16:41:22.466Z,994.8
2023-03-12T16:46:22.672Z,994.9
2023-03-12T16:51:22.472Z,994.8
2023-03-12T16:56:22.529Z,994.6
2023-03-12T17:01:22.539Z,994.6
2023-03-12T17:06:22.523Z,994.6
2023-03-12T17:11:22.468Z,994.5
2023-03-12T17:16:22.600Z,994.5
2023-03-12T17:21:22.457Z,994.5
2023-03-12T17:26:22.570Z,994.5
2023-03-12T17:31:22.481Z,994.4
2023-03-12T17:36:22.521Z,994.3
2023-03-12T17:41:26.882Z,994.3
2023-03-12T17:46:22.625Z,994.3
2023-03-12T17:51:22.454Z,994.3
2023-03-12T17:56:22.554Z,994.3
2023-03-12T18:01:22.469Z,994.3
2023-03-12T18:06:22.572Z,994.2
2023-03-12T18:11:22.506Z,994.2
2023-03-12T18:16:22.666Z,994.1
2023-03-12T18:21:22.505Z,994.0
2023-03-12T18:26:22.647Z,994.0
2023-03-12T18:31:22.624Z,994.0
2023-03-12T18:36:22.603Z,993.8
2023-03-12T18:41:22.538Z,993.8
2023-03-12T18:46:22.732Z,993.6
2023-03-12T18:51:22.565Z,993.6
2023-03-12T18:56:22.678Z,993.5
2023-03-12T19:01:22.662Z,993.3
2023-03-12T19:06:22.758Z,993.1
2023-03-12T19:11:22.622Z,993.0
2023-03-12T19:16:22.728Z,992.9
2023-03-12T19:21:22.579Z,992.7
2023-03-12T19:26:22.675Z,992.6
2023-03-12T19:31:22.645Z,992.5
2023-03-12T19:36:22.642Z,992.5
2023-03-12T19:41:22.593Z,992.4
2023-03-12T19:46:22.745Z,992.4
2023-03-12T19:51:22.618Z,992.3
2023-03-12T19:56:22.763Z,992.3
2023-03-12T20:01:22.640Z,992.1
2023-03-12T20:06:22.717Z,991.9
2023-03-12T20:11:22.602Z,991.9
2023-03-12T20:16:22.769Z,991.8
2023-03-12T20:21:22.612Z,991.7
2023-03-12T20:26:22.686Z,991.6
2023-03-12T20:31:22.639Z,991.6
2023-03-12T20:36:22.654Z,991.3
2023-03-12T20:41:22.594Z,991.2
2023-03-12T20:46:22.829Z,991.2
2023-03-12T20:51:22.605Z,991.0
2023-03-12T20:56:22.693Z,991.0
2023-03-12T21:01:22.660Z,990.8
2023-03-12T21:06:22.678Z,990.7
2023-03-12T21:11:22.643Z,990.7
2023-03-12T21:16:22.780Z,990.5
2023-03-12T21:21:22.628Z,990.4
2023-03-12T21:26:22.737Z,990.3
2023-03-12T21:31:22.692Z,990.1
2023-03-12T21:36:22.702Z,989.8
2023-03-12T21:41:22.670Z,989.7
2023-03-12T21:46:22.846Z,989.5
2023-03-12T21:51:22.669Z,989.4
2023-03-12T21:56:22.753Z,989.3
2023-03-12T22:01:22.717Z,989.2
2023-03-12T22:06:22.763Z,989.0
2023-03-12T22:11:22.664Z,988.8
2023-03-12T22:16:22.852Z,988.6
2023-03-12T22:21:22.712Z,988.3
2023-03-12T22:26:22.854Z,988.2
2023-03-12T22:31:22.800Z,988.2
2023-03-12T22:36:22.881Z,988.0
2023-03-12T22:41:22.721Z,987.8
2023-03-12T22:46:22.912Z,987.5
2023-03-12T22:51:22.744Z,987.4
2023-03-12T22:56:22.841Z,987.2
2023-03-12T23:01:22.811Z,987.1
2023-03-12T23:06:22.845Z,986.9
2023-03-12T23:11:22.734Z,986.8
2023-03-12T23:16:22.874Z,986.6
2023-03-12T23:21:22.747Z,986.5
2023-03-12T23:26:22.874Z,986.3
2023-03-12T23:31:22.831Z,985.9
2023-03-12T23:36:22.861Z,985.7
2023-03-12T23:46:22.870Z,985.2
2023-03-12T23:51:22.749Z,985.2
2023-03-12T23:56:22.859Z,985.0
